Time;durP1;ratioP1;P1;durP2;ratioP2;P2;SDS_P1;SDS_P2;PMS_P1;PMS_P2;Temp;Humidity;BMP_temperature;BMP_pressure;BME280_temperature;BME280_humidity;BME280_pressure;Samples;Min_cycle;Max_cycle;Signal;HPM_P1;HPM_P2
2022/03/19 00:00:28;;;;;;;6.75;4.45;;;;;;;19.10;19.93;101741.41;5110102;28;20031;-70
2022/03/19 00:02:54;;;;;;;7.32;3.88;;;;;;;19.13;20.23;101737.63;5110084;28;20016;-73
2022/03/19 00:05:20;;;;;;;8.50;4.38;;;;;;;19.13;19.79;101735.81;5104307;28;20062;-74
2022/03/19 00:07:45;;;;;;;6.35;3.30;;;;;;;19.14;19.98;101742.88;5090084;28;20020;-73
2022/03/19 00:10:11;;;;;;;7.78;4.05;;;;;;;19.16;19.90;101732.03;5095969;28;20042;-73
2022/03/19 00:12:41;;;;;;;9.75;4.22;;;;;;;19.16;19.81;101727.53;5109210;28;20012;-75
2022/03/19 00:15:08;;;;;;;6.88;3.38;;;;;;;19.18;19.66;101728.25;5089880;28;20083;-75
2022/03/19 00:17:34;;;;;;;5.38;3.40;;;;;;;19.18;19.98;101725.56;5089746;28;20080;-76
2022/03/19 00:19:59;;;;;;;7.75;4.65;;;;;;;19.20;19.70;101723.59;5089906;28;20043;-73
2022/03/19 00:22:25;;;;;;;5.93;3.80;;;;;;;19.21;19.84;101724.47;5096559;28;20020;-72
2022/03/19 00:24:51;;;;;;;8.15;3.65;;;;;;;19.21;19.99;101727.16;5108640;28;20020;-75
2022/03/19 00:27:16;;;;;;;12.82;3.92;;;;;;;19.23;19.87;101722.50;5107411;28;20035;-75
2022/03/19 00:29:42;;;;;;;8.20;3.70;;;;;;;19.22;19.80;101720.81;5091562;28;20225;-74
2022/03/19 00:32:07;;;;;;;5.13;3.47;;;;;;;19.24;19.83;101726.03;5089696;28;20023;-74
2022/03/19 00:34:33;;;;;;;4.13;3.20;;;;;;;19.25;19.90;101725.06;5089517;28;20067;-75
2022/03/19 00:36:58;;;;;;;5.88;4.22;;;;;;;19.27;19.67;101731.16;5089520;28;20020;-76
2022/03/19 00:39:24;;;;;;;6.90;4.32;;;;;;;19.28;19.58;101730.19;5089485;28;20113;-75
2022/03/19 00:41:52;;;;;;;6.75;3.72;;;;;;;19.29;19.51;101732.72;5099149;28;20065;-72
2022/03/19 00:44:22;;;;;;;6.38;3.58;;;;;;;19.29;19.89;101732.72;5109146;28;20012;-71
2022/03/19 00:46:48;;;;;;;6.93;3.55;;;;;;;19.29;19.95;101734.56;5108507;28;20027;-75
2022/03/19 00:49:14;;;;;;;8.15;4.15;;;;;;;19.30;19.94;101739.81;5108473;28;20020;-74
2022/03/19 00:51:40;;;;;;;8.18;3.65;;;;;;;19.31;20.06;101727.25;5109054;28;20036;-72
2022/03/19 00:54:07;;;;;;;5.13;3.15;;;;;;;19.32;20.02;101723.59;5109078;28;20130;-75
2022/03/19 00:56:33;;;;;;;6.90;4.10;;;;;;;19.32;19.95;101723.59;5109102;28;20129;-70
2022/03/19 00:58:58;;;;;;;8.60;4.93;;;;;;;19.32;20.01;101721.75;5109037;28;20016;-68
2022/03/19 01:01:24;;;;;;;5.35;3.70;;;;;;;19.34;20.01;101724.31;5108265;28;20062;-70
2022/03/19 01:03:49;;;;;;;6.25;3.80;;;;;;;19.33;19.99;101734.19;5108821;28;20020;-71
2022/03/19 01:06:15;;;;;;;7.55;3.75;;;;;;;19.34;20.02;101732.34;5108852;28;20032;-71
2022/03/19 01:08:41;;;;;;;7.28;3.83;;;;;;;19.38;20.17;101738.34;5108928;28;20028;-70
2022/03/19 01:11:06;;;;;;;9.07;4.05;;;;;;;19.36;20.26;101735.78;5108706;28;20073;-71
2022/03/19 01:13:32;;;;;;;13.48;5.57;;;;;;;19.40;20.05;101739.09;5108979;28;20035;-71
2022/03/19 01:15:58;;;;;;;7.63;3.67;;;;;;;19.40;20.24;101739.91;5108733;28;20038;-72
2022/03/19 01:18:24;;;;;;;8.25;3.63;;;;;;;19.42;20.03;101743.34;5108285;28;20225;-71
2022/03/19 01:20:49;;;;;;;6.13;3.85;;;;;;;19.44;19.84;101746.75;5108385;28;20028;-71
2022/03/19 01:23:15;;;;;;;8.57;4.05;;;;;;;19.45;20.03;101744.91;5108279;28;20144;-71
2022/03/19 01:25:41;;;;;;;7.28;3.80;;;;;;;19.47;20.01;101746.50;5108051;28;20027;-70
2022/03/19 01:28:06;;;;;;;6.60;4.68;;;;;;;19.46;19.89;101747.50;5107816;28;20024;-72
2022/03/19 01:30:32;;;;;;;6.65;3.58;;;;;;;19.45;20.08;101750.28;5108074;28;20175;-71
2022/03/19 01:32:57;;;;;;;6.03;4.07;;;;;;;19.47;20.30;101748.34;5107865;28;20187;-72
2022/03/19 01:35:23;;;;;;;6.32;3.95;;;;;;;19.47;20.18;101754.56;5093198;28;20091;-70
2022/03/19 01:37:49;;;;;;;11.23;3.60;;;;;;;19.48;20.28;101745.50;5088042;28;20226;-71
2022/03/19 01:40:16;;;;;;;10.48;3.85;;;;;;;19.49;20.15;101744.53;5090814;28;20024;-74
2022/03/19 01:42:45;;;;;;;8.13;4.35;;;;;;;19.47;20.03;101751.88;5090921;28;20254;-73
2022/03/19 01:45:16;;;;;;;5.75;3.47;;;;;;;19.47;20.29;101759.94;5087676;28;20027;-72
2022/03/19 01:47:42;;;;;;;;;;;;;;;19.40;20.58;101761.41;5088293;28;20126;-73
2022/03/19 01:50:09;;;;;;;7.75;3.67;;;;;;;19.39;20.44;101762.38;5087546;28;19917;-72
2022/03/19 01:52:35;;;;;;;10.18;4.05;;;;;;;19.39;20.46;101759.69;5088186;28;20024;-72
2022/03/19 01:55:02;;;;;;;10.50;4.15;;;;;;;19.38;20.26;101757.97;5087513;28;20030;-74
2022/03/19 01:57:37;;;;;;;8.18;5.45;;;;;;;19.36;20.24;101750.06;5087483;28;20034;-73
2022/03/19 02:00:07;;;;;;;10.02;4.55;;;;;;;19.32;20.21;101753.97;5094384;28;20020;-73
2022/03/19 02:02:34;;;;;;;6.88;4.50;;;;;;;19.32;20.14;101759.34;5106373;28;20224;-74
2022/03/19 02:05:01;;;;;;;5.85;4.03;;;;;;;19.30;20.25;101760.44;5106328;28;20183;-73
2022/03/19 02:07:27;;;;;;;7.45;4.55;;;;;;;19.31;20.31;101762.16;5106507;28;20024;-74
2022/03/19 02:09:56;;;;;;;11.55;4.40;;;;;;;19.29;20.52;101766.78;5106335;28;20339;-73
2022/03/19 02:12:22;;;;;;;8.20;4.00;;;;;;;19.27;20.36;101772.25;5106137;28;20020;-74
2022/03/19 02:14:48;;;;;;;6.72;3.67;;;;;;;19.27;20.49;101771.41;5106195;28;20023;-72
2022/03/19 02:17:14;;;;;;;7.63;4.43;;;;;;;19.26;20.46;101772.41;5103175;28;20088;-73
2022/03/19 02:19:48;;;;;;;5.82;3.83;;;;;;;19.23;20.50;101778.88;5087624;28;20036;-73
2022/03/19 02:22:14;;;;;;;7.60;4.57;;;;;;;19.19;20.43;101759.44;5087266;28;20088;-73
2022/03/19 02:27:24;;;;;;;7.80;3.78;;;;;;;19.20;20.25;101766.53;5087240;28;20055;-74
2022/03/19 02:29:49;;;;;;;7.90;4.50;;;;;;;19.20;20.36;101763.84;5098300;28;20020;-72
2022/03/19 02:32:15;;;;;;;7.25;5.00;;;;;;;19.20;20.15;101763.84;5106258;28;20008;-73
2022/03/19 02:34:40;;;;;;;8.10;4.45;;;;;;;19.20;20.05;101761.16;5106269;28;20036;-70
2022/03/19 02:37:06;;;;;;;8.07;4.22;;;;;;;19.19;20.22;101770.19;5105954;28;20019;-74
2022/03/19 02:39:32;;;;;;;8.10;4.07;;;;;;;19.18;20.25;101771.19;5093605;28;20086;-71
2022/03/19 02:42:00;;;;;;;8.30;4.63;;;;;;;19.19;20.19;101772.03;5086935;28;20020;-69
2022/03/19 02:44:26;;;;;;;8.65;5.65;;;;;;;19.17;20.03;101768.63;5087043;28;20028;-72
2022/03/19 02:46:56;;;;;;;8.73;4.72;;;;;;;19.18;20.15;101764.97;5086905;28;20048;-72
2022/03/19 02:49:21;;;;;;;16.52;5.30;;;;;;;19.16;20.17;101770.47;5087004;28;20020;-72
2022/03/19 02:51:49;;;;;;;7.15;4.60;;;;;;;19.15;20.29;101766.06;5086878;28;20016;-72
2022/03/19 02:54:17;;;;;;;9.93;3.67;;;;;;;19.17;20.24;101757.88;5087021;28;20087;-73
2022/03/19 02:56:43;;;;;;;7.57;4.50;;;;;;;19.17;20.52;101769.50;5086789;28;20024;-73
2022/03/19 02:59:17;;;;;;;6.47;4.47;;;;;;;19.15;20.16;101768.75;5086791;28;20083;-73
2022/03/19 03:01:47;;;;;;;8.93;5.10;;;;;;;19.15;20.19;101768.75;5087298;28;20198;-72
2022/03/19 03:04:13;;;;;;;10.18;5.53;;;;;;;19.14;20.10;101764.34;5086804;28;20017;-73
2022/03/19 03:06:43;;;;;;;8.90;4.20;;;;;;;19.13;20.14;101770.69;5086786;28;20145;-74
2022/03/19 03:09:10;;;;;;;6.65;4.32;;;;;;;19.15;20.19;101765.19;5086784;28;20086;-72
2022/03/19 03:11:37;;;;;;;7.97;4.47;;;;;;;19.16;20.16;101761.53;5086670;28;20012;-73
2022/03/19 03:14:04;;;;;;;9.23;4.72;;;;;;;19.14;19.98;101763.47;5089972;28;20048;-74
2022/03/19 03:16:30;;;;;;;7.38;4.50;;;;;;;19.16;20.28;101761.53;5090456;28;20028;-73
2022/03/19 03:18:57;;;;;;;8.00;4.38;;;;;;;19.16;20.31;101758.84;5090532;28;20031;-74
2022/03/19 03:21:24;;;;;;;9.27;4.20;;;;;;;19.15;20.22;101766.06;5090381;28;20020;-72
2022/03/19 03:23:50;;;;;;;8.18;3.80;;;;;;;19.13;20.38;101759.97;5090395;28;20052;-72
2022/03/19 03:26:16;;;;;;;7.93;5.15;;;;;;;19.11;20.31;101761.06;5090356;28;20024;-72
2022/03/19 03:28:41;;;;;;;9.55;4.72;;;;;;;19.15;20.25;101766.06;5098341;28;20008;-74
2022/03/19 03:31:07;;;;;;;7.50;4.00;;;;;;;19.16;20.13;101761.53;5090110;28;20069;-71
2022/03/19 03:33:33;;;;;;;6.15;4.10;;;;;;;19.14;20.39;101768.84;5090235;28;20154;-71
2022/03/19 03:35:59;;;;;;;7.82;4.88;;;;;;;19.14;20.36;101766.16;5090245;28;20028;-71
2022/03/19 03:38:24;;;;;;;8.45;5.13;;;;;;;19.13;20.18;101770.69;5090127;28;20225;-72
2022/03/19 03:40:51;;;;;;;8.52;4.80;;;;;;;19.14;20.01;101777.78;5090022;28;20016;-73
2022/03/19 03:43:17;;;;;;;7.32;5.38;;;;;;;19.14;20.08;101774.22;5095801;28;20035;-71
2022/03/19 03:45:43;;;;;;;7.65;4.90;;;;;;;19.14;20.26;101780.47;5108908;28;20048;-73
2022/03/19 03:48:09;;;;;;;6.75;4.55;;;;;;;19.13;20.26;101773.38;5108992;28;20022;-70
2022/03/19 03:50:35;;;;;;;7.20;4.45;;;;;;;19.15;20.41;101779.47;5094417;28;20024;-72
2022/03/19 03:53:04;;;;;;;9.93;4.57;;;;;;;19.14;20.43;101784.94;5089816;28;20024;-72
2022/03/19 03:55:30;;;;;;;10.73;4.60;;;;;;;19.16;20.24;101796.44;5089874;28;20035;-70
2022/03/19 03:57:56;;;;;;;8.50;4.93;;;;;;;19.17;20.28;101793.63;5090018;28;20016;-71
2022/03/19 04:00:21;;;;;;;7.90;5.03;;;;;;;19.16;20.06;101785.69;5093404;28;20028;-73
2022/03/19 04:02:47;;;;;;;9.15;4.97;;;;;;;19.20;20.25;101795.22;5089741;28;20076;-72
2022/03/19 04:05:12;;;;;;;14.40;5.55;;;;;;;19.17;20.24;101782.91;5089477;28;20023;-73
2022/03/19 04:07:38;;;;;;;11.23;4.93;;;;;;;19.20;20.15;101787.16;5089579;28;20021;-71
2022/03/19 04:10:05;;;;;;;7.93;4.50;;;;;;;19.20;20.11;101777.28;5089524;28;20020;-70
2022/03/19 04:12:30;;;;;;;15.77;5.80;;;;;;;19.19;20.29;101783.59;5089433;28;20048;-71
2022/03/19 04:14:55;;;;;;;9.68;5.38;;;;;;;19.21;20.12;101789.72;5108468;28;20047;-72
2022/03/19 04:17:21;;;;;;;9.32;6.05;;;;;;;19.20;20.00;101784.47;5108254;28;20024;-72
2022/03/19 04:19:46;;;;;;;7.68;5.63;;;;;;;19.24;20.09;101799.38;5108303;28;20032;-73
2022/03/19 04:22:12;;;;;;;9.77;5.68;;;;;;;19.29;19.93;101789.09;5108339;28;20073;-71
2022/03/19 04:24:38;;;;;;;8.95;4.75;;;;;;;19.36;20.15;101792.16;5107002;28;20024;-70
2022/03/19 04:27:04;;;;;;;11.90;5.97;;;;;;;19.42;19.94;101788.09;5108105;28;20062;-73
2022/03/19 04:29:29;;;;;;;12.13;5.70;;;;;;;19.48;19.95;101801.88;5097282;28;20233;-71
2022/03/19 04:31:55;;;;;;;8.65;5.50;;;;;;;19.54;20.08;101802.38;5089256;28;20016;-73
2022/03/19 04:34:21;;;;;;;9.35;5.85;;;;;;;19.57;19.96;101794.09;5088970;28;20037;-71
2022/03/19 04:36:47;;;;;;;11.20;5.88;;;;;;;19.61;19.99;101803.59;5088960;28;20031;-71
2022/03/19 04:39:13;;;;;;;8.82;5.22;;;;;;;19.63;19.65;101801.66;5107881;28;20132;-73
2022/03/19 04:41:39;;;;;;;8.50;5.55;;;;;;;19.69;19.99;101805.66;5107844;28;20024;-72
2022/03/19 04:44:05;;;;;;;11.05;5.47;;;;;;;19.72;19.88;101808.94;5107755;28;20031;-72
2022/03/19 04:46:31;;;;;;;16.38;6.13;;;;;;;19.79;20.03;101812.81;5107925;28;20140;-71
2022/03/19 04:48:57;;;;;;;8.10;5.75;;;;;;;19.83;20.12;101819.66;5107734;28;20023;-72
2022/03/19 04:51:30;;;;;;;8.40;5.50;;;;;;;19.89;20.07;101818.34;5090717;28;20039;-72
2022/03/19 04:53:56;;;;;;;8.60;5.45;;;;;;;19.94;19.90;101812.56;5088876;28;20020;-71
2022/03/19 04:56:27;;;;;;;8.60;6.00;;;;;;;20.01;19.96;101818.28;5088600;28;20137;-70
2022/03/19 04:58:53;;;;;;;;;;;;;;;19.99;20.24;101823.81;5089097;28;20028;-71
2022/03/19 05:01:19;;;;;;;11.90;6.82;;;;;;;20.09;20.05;101824.75;5105633;28;19911;-70
2022/03/19 05:03:45;;;;;;;9.73;5.75;;;;;;;20.21;19.77;101819.34;5107449;28;20027;-72
2022/03/19 05:06:10;;;;;;;8.98;5.90;;;;;;;20.29;20.03;101833.00;5107612;28;20019;-71
2022/03/19 05:08:36;;;;;;;10.50;5.85;;;;;;;20.30;20.21;101818.56;5107474;28;20136;-72
2022/03/19 05:11:14;;;;;;;7.90;6.03;;;;;;;20.40;20.30;101837.47;5107201;28;20020;-70
2022/03/19 05:13:44;;;;;;;11.77;5.40;;;;;;;20.47;20.07;101835.97;5107569;28;20039;-73
2022/03/19 05:16:12;;;;;;;8.30;5.65;;;;;;;20.50;20.18;101829.50;5107237;28;20023;-73
2022/03/19 05:18:39;;;;;;;8.32;5.03;;;;;;;20.55;20.22;101836.19;5107453;28;20099;-72
2022/03/19 05:21:05;;;;;;;9.85;6.05;;;;;;;20.61;20.09;101833.94;5107194;28;20024;-72
2022/03/19 05:23:31;;;;;;;9.82;5.57;;;;;;;20.66;20.14;101846.00;5089371;28;20026;-71
2022/03/19 05:25:58;;;;;;;8.40;5.40;;;;;;;20.72;20.10;101845.50;5106955;28;20213;-72
2022/03/19 05:28:24;;;;;;;11.88;6.70;;;;;;;20.83;20.08;101846.44;5103553;28;20036;-72
2022/03/19 05:30:51;;;;;;;9.70;5.72;;;;;;;20.89;20.25;101846.75;5087951;28;20024;-71
2022/03/19 05:33:16;;;;;;;9.70;5.70;;;;;;;20.88;20.31;101849.59;5087909;28;20035;-71
2022/03/19 05:35:42;;;;;;;10.82;4.40;;;;;;;20.77;20.18;101841.59;5087684;28;20016;-71
2022/03/19 05:38:08;;;;;;;11.68;5.68;;;;;;;20.69;20.35;101847.59;5107287;28;20063;-73
2022/03/19 05:40:34;;;;;;;11.57;5.35;;;;;;;20.66;20.26;101843.31;5107118;28;20202;-73
2022/03/19 05:43:00;;;;;;;9.82;5.15;;;;;;;20.63;20.32;101846.28;5106811;28;20183;-72
2022/03/19 05:45:26;;;;;;;7.78;5.00;;;;;;;20.64;20.33;101842.63;5106847;28;20024;-73
2022/03/19 05:47:51;;;;;;;8.30;4.78;;;;;;;20.64;20.69;101845.31;5106614;28;20138;-71
2022/03/19 05:50:17;;;;;;;11.25;6.50;;;;;;;20.64;20.52;101845.31;5093909;28;20028;-71
2022/03/19 05:52:46;;;;;;;7.88;5.40;;;;;;;20.67;20.49;101849.56;5087602;28;20066;-71
2022/03/19 05:55:13;;;;;;;11.65;5.90;;;;;;;20.66;20.69;101847.84;5087654;28;20024;-72
2022/03/19 05:57:40;;;;;;;10.60;5.55;;;;;;;20.65;20.96;101847.00;5087572;28;20062;-73
2022/03/19 06:00:08;;;;;;;12.48;6.30;;;;;;;20.67;20.64;101850.41;5090210;28;20017;-72
2022/03/19 06:02:39;;;;;;;9.88;5.50;;;;;;;20.68;20.87;101848.56;5087422;28;20034;-72
2022/03/19 06:05:06;;;;;;;11.30;6.07;;;;;;;20.64;20.79;101847.13;5087439;28;20140;-72
2022/03/19 06:07:31;;;;;;;9.35;5.15;;;;;;;20.64;20.90;101849.81;5069848;28;20023;-72
2022/03/19 06:09:57;;;;;;;7.90;5.07;;;;;;;20.64;20.92;101850.69;5087261;28;20225;-72
2022/03/19 06:12:22;;;;;;;7.65;4.95;;;;;;;20.63;21.01;101854.34;5095545;28;20078;-73
2022/03/19 06:14:53;;;;;;;12.15;5.70;;;;;;;20.66;20.96;101848.69;5087460;28;20028;-74
2022/03/19 06:17:19;;;;;;;9.23;5.57;;;;;;;20.66;20.88;101845.16;5087391;28;20024;-71
2022/03/19 06:19:44;;;;;;;8.52;5.50;;;;;;;20.68;20.93;101840.50;5087311;28;20024;-70
2022/03/19 06:22:10;;;;;;;9.35;4.45;;;;;;;20.68;21.02;101851.28;5087294;28;20096;-72
2022/03/19 06:24:35;;;;;;;7.43;5.07;;;;;;;20.69;20.99;101851.13;5087274;28;20032;-71
2022/03/19 06:27:01;;;;;;;6.40;4.53;;;;;;;20.73;20.79;101849.88;5087244;28;20131;-73
2022/03/19 06:29:26;;;;;;;9.00;4.72;;;;;;;20.77;20.74;101855.03;5087247;28;20024;-72
2022/03/19 06:31:52;;;;;;;9.80;5.20;;;;;;;20.79;20.69;101855.78;5087121;28;20035;-72
2022/03/19 06:34:17;;;;;;;5.13;3.28;;;;;;;20.81;20.81;101867.22;5087085;28;20055;-71
2022/03/19 06:39:27;;;;;;;5.97;3.38;;;;;;;20.82;20.43;101860.88;5090102;28;20024;-73
2022/03/19 06:41:53;;;;;;;6.70;3.60;;;;;;;20.83;20.54;101865.25;5095294;28;20020;-72
2022/03/19 06:44:18;;;;;;;4.32;3.63;;;;;;;20.83;20.39;101855.38;5106832;28;20028;-72
2022/03/19 06:46:44;;;;;;;3.95;3.08;;;;;;;20.84;20.53;101856.22;5105933;28;20016;-73
2022/03/19 06:49:09;;;;;;;5.07;3.35;;;;;;;20.85;20.38;101857.91;5087485;28;20039;-73
2022/03/19 06:51:36;;;;;;;5.45;3.42;;;;;;;20.84;20.34;101848.13;5090889;28;20012;-71
2022/03/19 06:54:03;;;;;;;7.15;3.63;;;;;;;20.85;20.21;101853.41;5091389;28;20028;-72
2022/03/19 06:56:28;;;;;;;5.88;3.08;;;;;;;20.85;20.14;101849.84;5073308;28;20013;-73
2022/03/19 06:58:54;;;;;;;4.25;3.10;;;;;;;20.84;20.39;101849.00;5103053;28;20012;-73
2022/03/19 07:01:19;;;;;;;4.55;3.13;;;;;;;20.83;20.06;101850.00;5095265;28;20192;-72
2022/03/19 07:03:46;;;;;;;5.80;3.60;;;;;;;20.84;20.20;101850.84;5090985;28;20226;-72
2022/03/19 07:06:12;;;;;;;4.55;3.20;;;;;;;20.85;20.19;101855.22;5090946;28;20173;-72
2022/03/19 07:08:38;;;;;;;6.68;3.40;;;;;;;20.84;19.88;101853.53;5090810;28;20024;-73
2022/03/19 07:11:04;;;;;;;5.15;3.00;;;;;;;20.84;20.02;101853.53;5090696;28;20245;-74
2022/03/19 07:13:31;;;;;;;7.68;3.40;;;;;;;20.85;19.90;101856.09;5090787;28;20024;-71
2022/03/19 07:15:57;;;;;;;6.43;3.30;;;;;;;20.86;20.03;101863.19;5090519;28;20016;-71
2022/03/19 07:18:23;;;;;;;6.85;3.80;;;;;;;20.87;20.08;101864.03;5091633;28;20182;-71
2022/03/19 07:20:50;;;;;;;8.20;4.22;;;;;;;20.88;19.80;101860.34;5090499;28;20012;-70
2022/03/19 07:23:16;;;;;;;8.02;3.85;;;;;;;20.88;19.75;101861.19;5090508;28;20027;-72
2022/03/19 07:25:43;;;;;;;7.35;3.97;;;;;;;20.90;19.86;101861.06;5090396;28;20237;-71
2022/03/19 07:28:14;;;;;;;12.35;4.25;;;;;;;20.92;19.79;101866.31;5092793;28;20021;-71
2022/03/19 07:30:41;;;;;;;4.07;3.50;;;;;;;20.88;19.71;101857.66;5073569;28;20091;-72
2022/03/19 07:33:08;;;;;;;6.50;3.97;;;;;;;20.92;19.89;101867.19;5090930;28;20295;-71
2022/03/19 07:35:34;;;;;;;9.77;4.15;;;;;;;20.94;19.70;101872.44;5109477;28;20012;-71
2022/03/19 07:38:00;;;;;;;11.88;4.30;;;;;;;20.95;19.79;101872.31;5088600;28;20035;-71
2022/03/19 07:43:12;;;;;;;6.95;3.70;;;;;;;20.96;19.66;101868.59;5090155;28;20248;-73
2022/03/19 07:45:40;;;;;;;6.97;3.45;;;;;;;20.97;19.61;101864.94;5090157;28;20205;-72
2022/03/19 07:48:06;;;;;;;8.75;3.97;;;;;;;20.96;19.54;101868.59;5090049;28;20012;-72
2022/03/19 07:50:33;;;;;;;7.43;4.53;;;;;;;20.97;19.59;101859.56;5089996;28;20030;-72
2022/03/19 07:52:58;;;;;;;6.85;4.38;;;;;;;20.97;19.66;101856.84;5089981;28;20207;-72
2022/03/19 07:55:24;;;;;;;7.88;4.63;;;;;;;20.98;19.50;101861.25;5089988;28;20052;-73
2022/03/19 07:57:53;;;;;;;12.68;3.72;;;;;;;20.97;19.59;101864.94;5089777;28;20021;-72
2022/03/19 08:00:19;;;;;;;5.57;4.00;;;;;;;20.97;19.62;101873.00;5091356;28;20222;-72
2022/03/19 08:02:45;;;;;;;7.85;4.75;;;;;;;20.96;19.56;101863.22;5089854;28;20052;-71
2022/03/19 08:05:12;;;;;;;10.35;4.50;;;;;;;21.00;19.66;101874.59;5089845;28;20031;-71
2022/03/19 08:07:38;;;;;;;9.45;4.75;;;;;;;21.00;19.49;101872.75;5089664;28;20253;-71
2022/03/19 08:10:08;;;;;;;8.65;5.10;;;;;;;21.00;19.66;101870.06;5089619;28;20016;-74
2022/03/19 08:12:35;;;;;;;8.30;5.35;;;;;;;20.99;19.72;101856.75;5095999;28;20023;-70
2022/03/19 08:15:06;;;;;;;11.63;4.45;;;;;;;21.00;19.83;101867.38;5090820;28;20086;-71
2022/03/19 08:17:32;;;;;;;6.80;4.32;;;;;;;20.99;19.67;101867.50;5102909;28;20043;-72
2022/03/19 08:19:59;;;;;;;7.97;4.20;;;;;;;21.00;19.90;101864.69;5097302;28;20047;-70
2022/03/19 08:22:27;;;;;;;11.82;5.32;;;;;;;20.99;19.75;101860.28;5108281;28;20020;-73
2022/03/19 08:24:54;;;;;;;10.00;4.70;;;;;;;21.00;19.60;101864.69;5090586;28;20038;-71
2022/03/19 08:27:20;;;;;;;10.40;3.95;;;;;;;21.03;19.60;101866.22;5108141;28;20209;-72
2022/03/19 08:29:45;;;;;;;11.80;4.25;;;;;;;21.03;19.85;101864.41;5096857;28;20081;-72
2022/03/19 08:32:11;;;;;;;8.07;4.25;;;;;;;21.03;19.64;101869.81;5089741;28;20189;-73
2022/03/19 08:34:38;;;;;;;8.90;4.78;;;;;;;21.03;19.70;101864.41;5071331;28;20033;-71
2022/03/19 08:37:06;;;;;;;7.20;3.85;;;;;;;21.01;19.75;101858.31;5088976;28;20024;-71
2022/03/19 08:42:17;;;;;;;4.68;3.53;;;;;;;21.03;19.59;101860.84;5089329;28;20107;-72
2022/03/19 08:44:42;;;;;;;8.02;4.00;;;;;;;21.03;19.71;101858.16;5071418;28;20111;-71
2022/03/19 08:47:08;;;;;;;6.72;3.50;;;;;;;21.04;19.66;101851.78;5089123;28;20028;-73
2022/03/19 08:49:33;;;;;;;7.85;3.97;;;;;;;21.06;19.89;101857.06;5089101;28;20257;-72
2022/03/19 08:51:59;;;;;;;5.95;3.65;;;;;;;21.07;19.65;101864.16;5088684;28;20077;-71
2022/03/19 08:54:24;;;;;;;6.05;3.35;;;;;;;21.06;19.99;101868.66;5088872;28;20024;-72
2022/03/19 08:56:51;;;;;;;6.45;2.63;;;;;;;21.07;19.83;101870.38;5088750;28;20017;-72
2022/03/19 08:59:18;;;;;;;4.07;2.75;;;;;;;21.08;19.77;101861.31;5089822;28;20020;-72
2022/03/19 09:01:45;;;;;;;4.25;2.75;;;;;;;21.12;19.68;101867.28;5097192;28;20023;-73
2022/03/19 09:04:11;;;;;;;11.32;3.20;;;;;;;21.08;20.02;101871.25;5107128;28;20038;-75
2022/03/19 09:06:38;;;;;;;11.82;3.47;;;;;;;21.12;20.34;101865.47;5103893;28;20212;-75
2022/03/19 09:09:04;;;;;;;7.65;3.17;;;;;;;21.14;20.07;101865.31;5107475;28;20228;-71
2022/03/19 09:11:31;;;;;;;8.38;3.15;;;;;;;21.13;20.08;101860.91;5107251;28;20035;-74
2022/03/19 09:14:02;;;;;;;11.07;3.47;;;;;;;21.08;20.74;101873.94;5090719;28;20095;-76
2022/03/19 09:16:28;;;;;;;8.85;4.13;;;;;;;20.83;20.59;101867.97;5100114;28;20090;-70
2022/03/19 09:18:53;;;;;;;10.40;3.72;;;;;;;20.58;20.96;101870.88;5107940;28;20020;-69
2022/03/19 09:21:19;;;;;;;10.00;3.45;;;;;;;20.42;21.28;101867.78;5108407;28;20148;-68
2022/03/19 09:23:45;;;;;;;6.80;3.05;;;;;;;20.24;21.47;101872.84;5108430;28;20091;-68
2022/03/19 09:26:14;;;;;;;12.85;4.20;;;;;;;20.10;21.29;101879.38;5108649;28;20023;-68
2022/03/19 09:28:40;;;;;;;7.95;3.90;;;;;;;19.98;21.40;101870.47;5108717;28;20027;-68
2022/03/19 09:31:06;;;;;;;7.53;3.50;;;;;;;19.92;21.40;101873.69;5108441;28;20023;-68
2022/03/19 09:33:31;;;;;;;11.35;3.22;;;;;;;19.88;21.68;101881.09;5108443;28;20043;-69
2022/03/19 09:36:00;;;;;;;6.28;3.40;;;;;;;19.80;21.50;101873.63;5108370;28;20028;-69
2022/03/19 09:38:27;;;;;;;6.57;3.17;;;;;;;19.74;21.69;101879.53;5108297;28;20027;-69
2022/03/19 09:40:52;;;;;;;6.22;3.22;;;;;;;19.71;21.91;101884.25;5108369;28;20023;-69
2022/03/19 09:43:21;;;;;;;7.68;2.70;;;;;;;19.72;22.02;101883.28;5108407;28;20040;-69
2022/03/19 09:45:46;;;;;;;7.97;3.13;;;;;;;19.69;21.41;101880.88;5108311;28;20028;-69
2022/03/19 09:48:12;;;;;;;7.40;3.05;;;;;;;19.63;21.42;101880.38;5108391;28;20091;-70
2022/03/19 09:50:38;;;;;;;11.23;3.25;;;;;;;19.62;21.87;101877.81;5108099;28;20020;-71
2022/03/19 09:53:05;;;;;;;6.35;3.05;;;;;;;19.60;21.87;101871.72;5099403;28;20039;-72
2022/03/19 09:55:30;;;;;;;5.78;2.90;;;;;;;19.61;22.26;101876.97;5087971;28;20024;-71
2022/03/19 09:57:57;;;;;;;6.20;2.72;;;;;;;19.66;22.36;101876.59;5087883;28;20249;-70
2022/03/19 10:00:24;;;;;;;5.57;2.78;;;;;;;19.66;21.91;101873.91;5098002;28;20028;-71
2022/03/19 10:03:06;;;;;;;8.43;3.30;;;;;;;19.62;21.78;101881.34;5108081;28;20089;-71
2022/03/19 10:08:39;;;;;;;6.40;2.30;;;;;;;19.52;22.52;101877.69;5106241;28;20058;-71
2022/03/19 10:11:15;;;;;;;7.75;2.85;;;;;;;19.49;22.21;101886.00;5107673;28;20054;-71
2022/03/19 10:13:44;;;;;;;5.25;2.75;;;;;;;19.44;22.05;101881.00;5106516;28;20095;-79
2022/03/19 10:16:11;;;;;;;5.80;2.90;;;;;;;19.45;21.93;101885.38;5107392;28;20032;-78
2022/03/19 10:18:37;;;;;;;7.50;2.85;;;;;;;19.39;21.88;101885.88;5090064;28;20034;-79
2022/03/19 10:21:13;;;;;;;5.45;2.47;;;;;;;19.39;21.88;101893.06;5107675;28;20035;-78
2022/03/19 10:23:42;;;;;;;4.20;2.47;;;;;;;19.41;21.67;101889.28;5107093;28;20043;-77
2022/03/19 10:26:21;;;;;;;4.65;3.00;;;;;;;19.41;21.69;101886.59;5107723;28;20039;-77
2022/03/19 10:29:04;;;;;;;7.00;2.92;;;;;;;19.39;21.50;101898.44;5107538;28;20221;-77
2022/03/19 10:31:37;;;;;;;4.70;2.53;;;;;;;19.33;21.50;101891.72;5107384;28;20057;-77
2022/03/19 10:34:05;;;;;;;6.40;2.80;;;;;;;19.31;21.33;101896.38;5107430;28;20160;-78
2022/03/19 10:36:35;;;;;;;4.32;2.50;;;;;;;19.30;21.37;101891.97;5107474;28;20027;-77
2022/03/19 10:39:06;;;;;;;4.88;2.47;;;;;;;19.28;21.51;101886.69;5107672;28;20007;-78
2022/03/19 10:41:36;;;;;;;6.25;2.75;;;;;;;19.35;21.57;101895.13;5107551;28;20066;-79
2022/03/19 10:44:16;;;;;;;4.28;2.47;;;;;;;19.40;21.62;101887.56;5107613;28;20046;-78
2022/03/19 10:46:49;;;;;;;4.78;2.92;;;;;;;19.42;21.56;101900.88;5089691;28;20088;-79
2022/03/19 10:49:17;;;;;;;4.05;2.35;;;;;;;19.43;21.45;101890.03;5107553;28;20055;-80
2022/03/19 10:51:48;;;;;;;3.70;2.55;;;;;;;19.44;21.45;101878.31;5089617;28;20023;-78
2022/03/19 10:54:14;;;;;;;6.13;3.03;;;;;;;19.46;21.66;101892.47;5107506;28;20034;-77
2022/03/19 10:56:42;;;;;;;5.97;2.60;;;;;;;19.48;21.53;101886.97;5089672;28;20028;-78
2022/03/19 10:59:07;;;;;;;5.95;3.08;;;;;;;19.51;21.19;101878.69;5107366;28;20023;-79
2022/03/19 11:01:38;;;;;;;4.90;2.85;;;;;;;19.52;21.08;101880.38;5089395;28;20012;-79
2022/03/19 11:04:07;;;;;;;6.47;2.80;;;;;;;19.48;21.27;101882.44;5107344;28;20028;-78
2022/03/19 11:06:35;;;;;;;8.18;3.10;;;;;;;19.48;21.32;101878.91;5107304;28;20020;-77
2022/03/19 11:09:06;;;;;;;6.40;2.85;;;;;;;19.53;21.42;101882.09;5105086;28;20024;-79
2022/03/19 11:11:50;;;;;;;4.88;2.60;;;;;;;19.56;21.67;101881.00;5086884;28;20057;-78
2022/03/19 11:14:24;;;;;;;4.20;2.70;;;;;;;19.53;21.37;101865.97;5086915;28;20059;-79
2022/03/19 11:19:44;;;;;;;5.32;2.97;;;;;;;19.73;21.41;101868.88;5087025;28;20023;-79
2022/03/19 11:22:09;;;;;;;5.85;3.13;;;;;;;19.74;20.98;101874.16;5086871;28;20028;-80
2022/03/19 11:24:48;;;;;;;3.72;2.75;;;;;;;19.69;21.00;101868.28;5086943;28;20016;-79
2022/03/19 11:27:15;;;;;;;5.13;3.00;;;;;;;19.64;21.10;101860.59;5105443;28;20186;-79
2022/03/19 11:29:40;;;;;;;3.63;2.85;;;;;;;19.69;21.32;101856.69;5089388;28;20053;-79
2022/03/19 11:32:06;;;;;;;5.63;2.72;;;;;;;19.71;20.99;101866.34;5106660;28;20156;-79
2022/03/19 11:34:46;;;;;;;5.50;3.33;;;;;;;19.63;20.77;101866.09;5109393;28;20272;-78
2022/03/19 11:37:13;;;;;;;4.38;2.60;;;;;;;19.55;20.78;101864.03;5110773;28;20032;-78
2022/03/19 11:39:38;;;;;;;5.10;3.10;;;;;;;19.48;20.65;101869.00;5110678;28;20229;-79